Time;durP1;ratioP1;P1;durP2;ratioP2;P2;SDS_P1;SDS_P2;PMS_P1;PMS_P2;Temp;Humidity;BMP_temperature;BMP_pressure;BME280_temperature;BME280_humidity;BME280_pressure;Samples;Min_cycle;Max_cycle;Signal;HPM_P1;HPM_P2
2022/03/12 00:02:08;;;;;;;10.63;6.95;;;10.20;13.70;;;;;;4988524;28;34756;-74
2022/03/12 00:04:34;;;;;;;11.35;7.25;;;10.20;13.90;;;;;;5005282;28;34131;-75
2022/03/12 00:07:00;;;;;;;11.68;6.90;;;10.20;14.10;;;;;;4988011;28;34314;-75
2022/03/12 00:09:27;;;;;;;11.45;6.45;;;10.20;14.40;;;;;;4987949;28;34491;-75
2022/03/12 00:11:56;;;;;;;8.57;5.78;;;10.20;14.40;;;;;;4987578;28;35864;-75
2022/03/12 00:14:23;;;;;;;8.18;5.82;;;10.20;15.70;;;;;;5005321;28;34343;-76
2022/03/12 00:16:50;;;;;;;9.07;5.75;;;10.30;15.90;;;;;;4987817;28;34638;-75
2022/03/12 00:19:21;;;;;;;8.25;5.13;;;10.30;16.40;;;;;;4988697;28;34350;-75
2022/03/12 00:21:50;;;;;;;8.00;5.28;;;10.40;16.60;;;;;;5005290;28;34260;-75
2022/03/12 00:24:17;;;;;;;9.15;4.97;;;10.40;17.30;;;;;;4972198;28;34327;-75
2022/03/12 00:26:45;;;;;;;8.82;5.03;;;10.50;17.60;;;;;;4988542;28;34308;-75
2022/03/12 00:29:14;;;;;;;6.72;4.75;;;10.50;17.80;;;;;;4987852;28;34661;-76
2022/03/12 00:31:42;;;;;;;6.28;4.25;;;10.50;18.20;;;;;;4986840;28;36432;-75
2022/03/12 00:34:09;;;;;;;7.68;5.22;;;10.50;18.50;;;;;;4987914;28;34226;-75
2022/03/12 00:36:35;;;;;;;6.53;4.47;;;10.60;18.30;;;;;;4987130;28;34163;-75
2022/03/12 00:39:02;;;;;;;8.02;4.75;;;10.60;18.10;;;;;;5004870;28;34071;-75
2022/03/12 00:41:29;;;;;;;6.65;4.68;;;10.60;18.20;;;;;;4971585;28;36402;-75
2022/03/12 00:43:55;;;;;;;7.60;5.05;;;10.60;18.30;;;;;;4971595;28;34246;-76
2022/03/12 00:46:22;;;;;;;7.53;5.00;;;10.60;18.40;;;;;;4987256;28;34245;-75
2022/03/12 00:48:48;;;;;;;8.90;4.68;;;10.60;18.70;;;;;;5004896;28;34071;-75
2022/03/12 00:51:14;;;;;;;6.40;4.25;;;10.50;19.00;;;;;;4970563;28;35948;-75
2022/03/12 00:53:41;;;;;;;7.22;4.18;;;10.50;19.00;;;;;;4987392;28;34346;-75
2022/03/12 00:56:08;;;;;;;8.25;4.57;;;10.50;19.50;;;;;;4986971;28;34301;-75
2022/03/12 00:58:35;;;;;;;7.60;4.63;;;10.50;19.70;;;;;;5004838;28;34379;-75
2022/03/12 01:01:02;;;;;;;6.72;4.30;;;10.50;19.60;;;;;;4970355;28;36418;-75
2022/03/12 01:03:28;;;;;;;5.05;3.83;;;10.40;19.90;;;;;;5004583;28;34087;-75
2022/03/12 01:05:59;;;;;;;6.00;3.40;;;10.40;20.00;;;;;;4970731;28;34236;-75
2022/03/12 01:08:27;;;;;;;4.72;3.78;;;10.40;21.60;;;;;;5004461;28;34264;-75
2022/03/12 01:10:55;;;;;;;5.70;4.32;;;10.40;20.50;;;;;;4986596;28;35679;-75
2022/03/12 01:13:21;;;;;;;5.43;3.88;;;10.40;20.50;;;;;;4986717;28;34116;-75
2022/03/12 01:15:48;;;;;;;5.00;2.90;;;10.40;21.00;;;;;;4986853;28;34122;-75
2022/03/12 01:18:17;;;;;;;3.75;3.08;;;10.30;21.20;;;;;;4986908;28;34429;-75
2022/03/12 01:20:43;;;;;;;4.85;3.45;;;10.30;21.70;;;;;;4986714;28;35756;-75
2022/03/12 01:23:13;;;;;;;5.13;3.33;;;10.30;21.60;;;;;;5004374;28;34139;-75
2022/03/12 01:25:41;;;;;;;3.90;3.10;;;10.30;22.00;;;;;;4986429;28;34290;-75
2022/03/12 01:28:09;;;;;;;4.32;3.17;;;10.30;22.10;;;;;;4986570;28;34190;-75
2022/03/12 01:30:35;;;;;;;6.20;3.40;;;10.30;22.20;;;;;;4986205;28;35596;-75
2022/03/12 01:33:01;;;;;;;5.57;3.00;;;10.30;22.10;;;;;;4986116;28;34103;-75
2022/03/12 01:35:27;;;;;;;10.98;3.15;;;10.30;22.60;;;;;;5004322;28;34814;-74
2022/03/12 01:37:53;;;;;;;3.75;2.88;;;10.30;22.80;;;;;;4986627;28;34177;-75
2022/03/12 01:40:20;;;;;;;4.03;2.85;;;10.30;22.90;;;;;;4986080;28;35841;-74
2022/03/12 01:42:47;;;;;;;6.32;3.08;;;10.30;23.10;;;;;;4985956;28;34440;-75
2022/03/12 01:45:24;;;;;;;3.65;2.78;;;10.30;23.30;;;;;;4986663;28;34167;-74
2022/03/12 01:47:53;;;;;;;4.35;2.80;;;10.30;24.30;;;;;;4987780;28;34214;-75
2022/03/12 01:50:21;;;;;;;3.53;2.95;;;10.30;23.40;;;;;;4985911;28;37039;-75
2022/03/12 01:52:48;;;;;;;4.00;3.03;;;10.30;23.90;;;;;;4969910;28;34447;-75
2022/03/12 01:55:15;;;;;;;4.55;3.10;;;10.30;24.30;;;;;;5003366;28;34342;-75
2022/03/12 01:57:41;;;;;;;5.70;2.92;;;10.30;24.40;;;;;;4970179;28;34095;-75
2022/03/12 02:00:23;;;;;;;4.10;3.30;;;10.30;24.50;;;;;;5003499;28;35538;-75
2022/03/12 02:02:54;;;;;;;4.47;3.10;;;10.40;27.80;;;;;;4986082;28;34312;-75
2022/03/12 02:05:23;;;;;;;3.50;2.85;;;10.40;24.50;;;;;;5002785;28;34453;-75
2022/03/12 02:07:49;;;;;;;4.07;3.28;;;10.40;24.70;;;;;;4986181;28;34554;-75
2022/03/12 02:10:18;;;;;;;9.07;2.78;;;10.30;24.70;;;;;;4985979;28;35598;-75
2022/03/12 02:12:44;;;;;;;7.43;3.00;;;10.40;25.30;;;;;;4985699;28;34287;-75
2022/03/12 02:15:10;;;;;;;4.32;3.38;;;10.40;25.10;;;;;;4985984;28;34333;-75
2022/03/12 02:17:38;;;;;;;4.28;3.42;;;10.40;25.20;;;;;;4985410;28;34256;-75
2022/03/12 02:20:06;;;;;;;5.45;3.15;;;10.30;26.00;;;;;;4985618;28;36656;-75
2022/03/12 02:22:32;;;;;;;5.45;3.60;;;10.30;26.30;;;;;;4986196;28;34156;-75
2022/03/12 02:24:58;;;;;;;4.07;3.13;;;10.40;25.70;;;;;;4969741;28;34096;-75
2022/03/12 02:27:25;;;;;;;3.95;3.03;;;10.40;25.80;;;;;;4954499;28;34397;-75
2022/03/12 02:29:53;;;;;;;5.38;3.03;;;10.30;28.30;;;;;;4985317;28;35719;-75
2022/03/12 02:32:19;;;;;;;4.90;3.13;;;10.30;27.50;;;;;;4985659;28;34262;-75
2022/03/12 02:34:47;;;;;;;5.07;3.50;;;10.30;27.90;;;;;;4969510;28;34300;-75
2022/03/12 02:37:30;;;;;;;5.00;3.53;;;10.30;27.60;;;;;;4985866;28;34211;-74
2022/03/12 02:39:58;;;;;;;3.80;3.03;;;10.30;27.50;;;;;;4988138;28;34372;-75
2022/03/12 02:42:24;;;;;;;4.95;3.50;;;10.30;28.70;;;;;;4985406;28;34449;-76
2022/03/12 02:44:51;;;;;;;4.35;3.33;;;10.20;27.70;;;;;;4969652;28;34475;-75
2022/03/12 02:47:21;;;;;;;4.45;3.17;;;10.20;28.20;;;;;;5003065;28;34380;-76
2022/03/12 02:49:52;;;;;;;5.10;3.40;;;10.20;28.60;;;;;;4985587;28;35827;-75
2022/03/12 02:52:19;;;;;;;4.75;3.45;;;10.20;28.90;;;;;;5002990;28;34123;-75
2022/03/12 02:54:48;;;;;;;4.00;2.95;;;10.20;28.20;;;;;;4969410;28;34177;-76
2022/03/12 02:57:14;;;;;;;4.32;2.70;;;10.20;28.40;;;;;;4986276;28;34393;-76
2022/03/12 02:59:43;;;;;;;4.25;3.08;;;10.20;28.30;;;;;;4985034;28;35626;-75
2022/03/12 03:02:10;;;;;;;4.47;3.00;;;10.20;29.40;;;;;;4969899;28;34159;-76
2022/03/12 03:04:39;;;;;;;4.97;3.15;;;10.20;29.00;;;;;;4969485;28;34172;-76
2022/03/12 03:07:09;;;;;;;4.20;3.20;;;10.10;28.70;;;;;;4986197;28;34167;-76
2022/03/12 03:09:35;;;;;;;5.30;3.35;;;10.10;29.80;;;;;;4969243;28;35809;-76
2022/03/12 03:12:06;;;;;;;5.05;3.10;;;10.10;28.90;;;;;;4985329;28;34116;-76
2022/03/12 03:14:32;;;;;;;3.83;2.67;;;10.20;28.80;;;;;;4985294;28;34215;-76
2022/03/12 03:17:00;;;;;;;5.72;3.10;;;10.20;29.00;;;;;;4985654;28;34483;-75
2022/03/12 03:19:27;;;;;;;4.07;3.10;;;10.20;28.70;;;;;;4985427;28;35539;-76
2022/03/12 03:21:55;;;;;;;3.90;2.92;;;10.20;29.00;;;;;;4985508;28;34179;-76
2022/03/12 03:24:22;;;;;;;3.85;2.60;;;10.20;28.90;;;;;;5005356;28;34308;-76
2022/03/12 03:26:51;;;;;;;4.63;3.22;;;10.20;28.60;;;;;;4989041;28;34457;-76
2022/03/12 03:29:19;;;;;;;3.70;2.90;;;10.20;28.80;;;;;;4989082;28;34513;-75
2022/03/12 03:31:46;;;;;;;3.92;2.88;;;10.20;28.70;;;;;;4988850;28;34439;-75
2022/03/12 03:34:13;;;;;;;4.13;3.33;;;10.20;29.00;;;;;;5006199;28;34491;-75
2022/03/12 03:36:40;;;;;;;4.07;2.95;;;10.20;28.80;;;;;;5005559;28;34269;-76
2022/03/12 03:39:06;;;;;;;4.45;3.22;;;10.20;28.80;;;;;;4988373;28;36485;-76
2022/03/12 03:41:33;;;;;;;4.60;2.67;;;10.20;28.70;;;;;;5006072;28;34316;-76
2022/03/12 03:44:00;;;;;;;5.28;3.35;;;10.20;28.80;;;;;;4972267;28;34255;-76
2022/03/12 03:46:26;;;;;;;3.92;2.80;;;10.20;28.80;;;;;;5006012;28;34273;-75
2022/03/12 03:48:53;;;;;;;3.65;2.65;;;10.20;28.90;;;;;;4987930;28;36629;-75
2022/03/12 03:51:21;;;;;;;4.55;3.20;;;10.20;28.90;;;;;;4972269;28;34339;-75
2022/03/12 03:53:48;;;;;;;5.35;2.90;;;10.20;29.20;;;;;;4987562;28;34208;-75
2022/03/12 03:56:15;;;;;;;4.15;3.00;;;10.10;29.40;;;;;;5005700;28;34391;-75
2022/03/12 03:58:41;;;;;;;4.82;3.08;;;10.10;29.50;;;;;;4987665;28;35719;-75
2022/03/12 04:01:12;;;;;;;5.55;3.40;;;10.10;29.50;;;;;;5005424;28;34436;-76
2022/03/12 04:03:42;;;;;;;3.33;2.72;;;10.10;30.30;;;;;;4972545;28;34060;-75
2022/03/12 04:06:09;;;;;;;4.25;3.17;;;10.00;30.20;;;;;;4987804;28;34222;-75
2022/03/12 04:08:35;;;;;;;3.05;2.70;;;9.90;30.20;;;;;;4986909;28;35737;-76
2022/03/12 04:11:04;;;;;;;6.05;3.00;;;9.90;30.40;;;;;;5004838;28;34276;-76
2022/03/12 04:13:31;;;;;;;4.60;3.28;;;9.80;30.50;;;;;;4986969;28;34416;-75
2022/03/12 04:16:00;;;;;;;5.68;3.00;;;9.80;30.70;;;;;;4987265;28;34448;-76
2022/03/12 04:18:26;;;;;;;5.35;2.70;;;9.70;30.70;;;;;;4987543;28;35834;-75
2022/03/12 04:20:52;;;;;;;4.28;3.10;;;9.70;31.20;;;;;;4986907;28;34373;-76
2022/03/12 04:23:21;;;;;;;4.93;3.30;;;9.60;31.10;;;;;;5005678;28;34291;-75
2022/03/12 04:25:51;;;;;;;3.08;2.78;;;9.50;31.40;;;;;;4986929;28;34329;-75
2022/03/12 04:28:19;;;;;;;4.60;2.80;;;9.50;31.60;;;;;;5004270;28;34935;-75
2022/03/12 04:30:45;;;;;;;4.57;2.95;;;9.50;31.50;;;;;;4986991;28;34341;-75
2022/03/12 04:33:12;;;;;;;4.45;3.10;;;9.40;31.50;;;;;;4987395;28;34404;-76
2022/03/12 04:35:39;;;;;;;3.72;2.90;;;9.40;31.60;;;;;;4969610;28;34467;-76
2022/03/12 04:38:09;;;;;;;3.25;2.55;;;9.40;31.80;;;;;;4987551;28;34533;-75
2022/03/12 04:40:38;;;;;;;4.90;3.20;;;9.40;31.90;;;;;;4987030;28;34348;-76
2022/03/12 04:43:06;;;;;;;3.78;2.88;;;9.40;32.10;;;;;;4987487;28;34174;-76
2022/03/12 04:45:34;;;;;;;3.50;2.63;;;9.40;32.10;;;;;;4987774;28;34564;-75
2022/03/12 04:48:00;;;;;;;5.07;2.90;;;9.40;32.10;;;;;;4971353;28;36676;-75
2022/03/12 04:50:26;;;;;;;4.20;3.25;;;9.40;32.00;;;;;;4987080;28;34212;-76
2022/03/12 04:52:56;;;;;;;4.40;2.90;;;9.30;32.30;;;;;;4986447;28;34345;-76
2022/03/12 04:55:24;;;;;;;5.43;3.45;;;9.30;32.20;;;;;;5003967;28;34380;-76
2022/03/12 04:57:52;;;;;;;5.28;3.08;;;9.30;32.40;;;;;;4969937;28;36512;-76
2022/03/12 05:00:25;;;;;;;5.00;3.47;;;9.30;32.50;;;;;;4987417;28;34230;-76
2022/03/12 05:03:01;;;;;;;6.10;3.58;;;9.30;33.70;;;;;;4987061;28;34239;-76
2022/03/12 05:05:27;;;;;;;5.55;3.25;;;9.30;33.10;;;;;;4804612;28;5280449;-75
2022/03/12 05:07:59;;;;;;;6.68;3.45;;;9.20;32.60;;;;;;4987910;28;34586;-76
2022/03/12 05:10:28;;;;;;;6.57;3.45;;;9.20;32.60;;;;;;4995053;28;34313;-76
2022/03/12 05:13:00;;;;;;;5.20;3.40;;;9.20;32.70;;;;;;4987386;28;34378;-76
2022/03/12 05:15:32;;;;;;;4.80;3.45;;;9.10;32.80;;;;;;5005165;28;34109;-75
2022/03/12 05:17:58;;;;;;;5.03;3.28;;;9.10;33.00;;;;;;4986654;28;35739;-76
2022/03/12 05:20:26;;;;;;;3.95;2.47;;;9.10;32.80;;;;;;4987225;28;34164;-76
2022/03/12 05:22:53;;;;;;;3.78;2.97;;;9.10;32.90;;;;;;4970605;28;34226;-76
2022/03/12 05:25:20;;;;;;;4.50;3.03;;;9.00;32.80;;;;;;4987390;28;34126;-76
2022/03/12 05:27:48;;;;;;;5.07;3.38;;;9.00;32.90;;;;;;5004562;28;34774;-75
2022/03/12 05:30:14;;;;;;;5.10;3.28;;;9.00;33.00;;;;;;4987241;28;34261;-76
2022/03/12 05:32:40;;;;;;;4.05;3.03;;;9.00;33.60;;;;;;4970476;28;34402;-76
2022/03/12 05:35:07;;;;;;;5.55;3.58;;;8.90;32.90;;;;;;5004619;28;34492;-76
2022/03/12 05:37:36;;;;;;;8.35;3.20;;;8.90;33.00;;;;;;4970750;28;35577;-76
2022/03/12 05:40:04;;;;;;;5.88;3.47;;;8.90;32.90;;;;;;4986644;28;34262;-75
2022/03/12 05:42:32;;;;;;;6.40;3.90;;;8.90;33.00;;;;;;5004394;28;34189;-75
2022/03/12 05:44:58;;;;;;;5.97;3.78;;;8.80;33.00;;;;;;4971458;28;34315;-75
2022/03/12 05:47:24;;;;;;;4.82;3.45;;;8.90;33.10;;;;;;4986756;28;34182;-76
2022/03/12 05:49:51;;;;;;;7.10;4.25;;;8.90;33.10;;;;;;4986574;28;34124;-76
2022/03/12 05:52:17;;;;;;;5.03;3.60;;;8.80;33.10;;;;;;4970454;28;34191;-76
2022/03/12 05:54:45;;;;;;;5.43;3.50;;;8.80;33.10;;;;;;4986627;28;34261;-76
2022/03/12 05:57:13;;;;;;;4.18;3.28;;;8.80;33.00;;;;;;5004365;28;34122;-76
2022/03/12 05:59:39;;;;;;;5.28;3.92;;;8.70;33.00;;;;;;4986628;28;34229;-76
2022/03/12 06:02:05;;;;;;;5.05;3.50;;;8.70;33.10;;;;;;4986567;28;34167;-76
2022/03/12 06:04:32;;;;;;;5.60;3.85;;;8.60;33.00;;;;;;4986442;28;34316;-76
2022/03/12 06:06:58;;;;;;;4.93;3.15;;;8.60;33.10;;;;;;4971640;28;35803;-76
2022/03/12 06:09:24;;;;;;;5.95;3.92;;;8.50;33.20;;;;;;4972084;28;34108;-76
2022/03/12 06:11:53;;;;;;;6.65;3.80;;;8.40;33.20;;;;;;4986868;28;34442;-76
2022/03/12 06:14:21;;;;;;;6.68;3.95;;;8.40;33.30;;;;;;5004153;28;34358;-76
2022/03/12 06:16:48;;;;;;;5.32;3.90;;;8.30;33.40;;;;;;4986184;28;35653;-76
2022/03/12 06:19:16;;;;;;;5.28;3.63;;;8.30;33.60;;;;;;5004337;28;34349;-76
2022/03/12 06:21:42;;;;;;;4.97;3.60;;;8.30;33.60;;;;;;4985873;28;34285;-76
2022/03/12 06:24:08;;;;;;;5.97;3.78;;;8.30;33.40;;;;;;4986692;28;34364;-76
2022/03/12 06:26:36;;;;;;;5.00;3.63;;;8.30;33.40;;;;;;4985955;28;36274;-76
2022/03/12 06:29:05;;;;;;;5.43;3.63;;;8.30;33.40;;;;;;5004040;28;34107;-76
2022/03/12 06:31:33;;;;;;;4.50;3.25;;;8.40;33.50;;;;;;4986056;28;34470;-76
2022/03/12 06:34:02;;;;;;;3.92;3.05;;;8.40;33.40;;;;;;5004686;28;34298;-76
2022/03/12 06:36:28;;;;;;;4.65;3.75;;;8.40;33.40;;;;;;4986001;28;35530;-76
2022/03/12 06:38:54;;;;;;;5.05;3.45;;;8.40;33.40;;;;;;4970809;28;34143;-76
2022/03/12 06:41:20;;;;;;;6.20;3.60;;;8.50;33.40;;;;;;4970124;28;34150;-76
2022/03/12 06:43:47;;;;;;;7.35;3.85;;;8.50;33.50;;;;;;4985954;28;34617;-76
2022/03/12 06:46:14;;;;;;;6.10;3.90;;;8.60;33.50;;;;;;4985629;28;36728;-76
2022/03/12 06:48:42;;;;;;;5.97;4.15;;;8.60;33.60;;;;;;4985587;28;34370;-76
2022/03/12 06:51:10;;;;;;;5.60;3.78;;;8.70;33.60;;;;;;4985234;28;34385;-75
2022/03/12 06:53:37;;;;;;;5.30;3.55;;;8.80;33.40;;;;;;4985957;28;34469;-76
2022/03/12 06:56:04;;;;;;;5.07;3.78;;;9.00;33.40;;;;;;4985521;28;36045;-76
2022/03/12 06:58:30;;;;;;;7.63;4.22;;;9.10;33.10;;;;;;4984663;28;34169;-76
2022/03/12 07:00:57;;;;;;;6.35;3.92;;;9.30;32.80;;;;;;5002890;28;34413;-76
2022/03/12 07:03:23;;;;;;;5.75;3.58;;;9.50;32.40;;;;;;4986805;28;34313;-76
2022/03/12 07:05:51;;;;;;;5.82;4.03;;;9.80;32.10;;;;;;4985085;28;35971;-76
2022/03/12 07:08:19;;;;;;;7.55;3.90;;;10.00;31.80;;;;;;4985753;28;34251;-76
2022/03/12 07:10:46;;;;;;;7.63;4.28;;;10.20;31.20;;;;;;5003276;28;34187;-76
2022/03/12 07:13:12;;;;;;;5.68;3.95;;;10.40;30.90;;;;;;5003008;28;34102;-76
2022/03/12 07:15:38;;;;;;;6.30;3.53;;;10.60;30.70;;;;;;4984974;28;35488;-76
2022/03/12 07:18:05;;;;;;;7.68;4.32;;;10.70;30.50;;;;;;5003894;28;34301;-76
2022/03/12 07:20:31;;;;;;;5.13;3.67;;;10.90;30.30;;;;;;4969445;28;34429;-76
2022/03/12 07:22:57;;;;;;;5.60;3.80;;;11.00;30.00;;;;;;5003627;28;34189;-76
2022/03/12 07:25:25;;;;;;;4.82;3.65;;;11.20;29.60;;;;;;5003199;28;34376;-76
2022/03/12 07:27:52;;;;;;;5.60;3.60;;;11.20;29.60;;;;;;4969542;28;34234;-76
2022/03/12 07:30:21;;;;;;;5.15;4.00;;;11.40;29.50;;;;;;4985346;28;34056;-76
2022/03/12 07:32:48;;;;;;;5.57;3.80;;;11.50;29.40;;;;;;5002278;28;34304;-76
2022/03/12 07:35:16;;;;;;;5.57;3.83;;;11.70;29.20;;;;;;4985362;28;34928;-76
2022/03/12 07:37:43;;;;;;;6.53;3.90;;;11.90;29.00;;;;;;4985288;28;34230;-76
2022/03/12 07:40:10;;;;;;;9.05;4.35;;;12.10;28.10;;;;;;4969301;28;34188;-76
2022/03/12 07:42:37;;;;;;;6.00;3.63;;;12.20;27.80;;;;;;4967883;28;34393;-76
2022/03/12 07:45:05;;;;;;;6.57;3.97;;;12.40;27.70;;;;;;4963385;28;35713;-76
2022/03/12 07:47:31;;;;;;;5.47;4.13;;;12.60;27.20;;;;;;4951249;28;34088;-76
2022/03/12 07:49:56;;;;;;;5.57;3.97;;;12.70;26.90;;;;;;4984010;28;34112;-76
2022/03/12 07:52:22;;;;;;;5.97;3.65;;;12.90;26.70;;;;;;4983885;28;34235;-76
2022/03/12 07:54:48;;;;;;;7.55;4.25;;;13.10;26.30;;;;;;4969217;28;35602;-76
2022/03/12 07:57:14;;;;;;;7.00;4.15;;;13.20;25.90;;;;;;5003986;28;34146;-76
2022/03/12 07:59:40;;;;;;;6.55;4.15;;;13.30;26.30;;;;;;4986072;28;34298;-76
2022/03/12 08:02:07;;;;;;;6.20;3.67;;;13.40;25.50;;;;;;4970403;28;34228;-76
2022/03/12 08:04:35;;;;;;;5.38;3.72;;;13.50;25.40;;;;;;4985695;28;35808;-76
2022/03/12 08:07:02;;;;;;;7.90;3.90;;;13.60;25.20;;;;;;4954566;28;34084;-76
2022/03/12 08:09:30;;;;;;;6.45;4.03;;;13.60;24.40;;;;;;4970428;28;34136;-76
2022/03/12 08:11:57;;;;;;;4.97;3.53;;;13.50;24.40;;;;;;4973215;28;34379;-76
2022/03/12 08:14:24;;;;;;;7.63;4.38;;;13.50;24.50;;;;;;4979290;28;36010;-77
2022/03/12 08:16:52;;;;;;;5.90;3.42;;;13.50;24.50;;;;;;4989799;28;34068;-77
2022/03/12 08:19:19;;;;;;;5.05;3.72;;;13.50;23.50;;;;;;4988950;28;34164;-76
2022/03/12 08:21:46;;;;;;;6.22;3.75;;;13.40;24.10;;;;;;4989796;28;34459;-77
2022/03/12 08:24:15;;;;;;;6.03;3.83;;;13.50;23.60;;;;;;4957418;28;36041;-75
2022/03/12 08:26:42;;;;;;;6.15;3.72;;;13.50;23.90;;;;;;5006639;28;34209;-75
2022/03/12 08:29:10;;;;;;;9.98;4.22;;;13.60;23.90;;;;;;4989519;28;34097;-76
2022/03/12 08:31:38;;;;;;;10.48;3.60;;;13.70;23.20;;;;;;5007057;28;34470;-76
2022/03/12 08:34:04;;;;;;;8.32;4.03;;;13.80;23.20;;;;;;4989573;28;34163;-76
2022/03/12 08:36:30;;;;;;;5.20;3.53;;;13.90;23.20;;;;;;4989724;28;34131;-76
2022/03/12 08:38:56;;;;;;;5.95;3.47;;;14.10;22.50;;;;;;4989424;28;34146;-77
2022/03/12 08:41:23;;;;;;;5.70;3.58;;;14.20;22.70;;;;;;4990043;28;34422;-78
2022/03/12 08:43:49;;;;;;;8.07;3.70;;;14.30;22.60;;;;;;4990349;28;35173;-77
2022/03/12 08:46:15;;;;;;;6.00;3.40;;;14.50;22.40;;;;;;4989606;28;34277;-76
2022/03/12 08:48:42;;;;;;;5.35;3.47;;;14.60;21.90;;;;;;5006778;28;34286;-76
2022/03/12 08:51:08;;;;;;;4.93;3.38;;;14.60;21.90;;;;;;4989131;28;34356;-76
2022/03/12 08:53:34;;;;;;;4.32;3.35;;;14.80;21.80;;;;;;5006262;28;34692;-76
2022/03/12 08:56:02;;;;;;;6.03;3.78;;;14.90;21.50;;;;;;4989209;28;34191;-76
2022/03/12 08:58:30;;;;;;;5.18;3.17;;;14.90;21.50;;;;;;4988931;28;34191;-76
2022/03/12 09:00:57;;;;;;;5.07;3.00;;;14.90;21.40;;;;;;4989070;28;34217;-76
2022/03/12 09:03:24;;;;;;;4.72;3.08;;;14.80;20.90;;;;;;5006482;28;34309;-76
2022/03/12 09:05:51;;;;;;;5.78;3.30;;;14.80;21.30;;;;;;4989199;28;34109;-76
2022/03/12 09:08:18;;;;;;;7.18;3.35;;;14.70;20.90;;;;;;4989063;28;34080;-75
2022/03/12 09:10:45;;;;;;;5.05;3.17;;;14.70;21.30;;;;;;5005832;28;34106;-76
2022/03/12 09:13:12;;;;;;;7.00;3.50;;;14.70;21.30;;;;;;4988065;28;36122;-75
2022/03/12 09:15:39;;;;;;;5.28;3.25;;;14.60;21.30;;;;;;5006230;28;34316;-76
2022/03/12 09:18:06;;;;;;;5.97;3.05;;;14.50;21.30;;;;;;4973032;28;34231;-75
2022/03/12 09:20:36;;;;;;;5.18;3.35;;;14.60;20.40;;;;;;4987941;28;34486;-75
2022/03/12 09:23:02;;;;;;;5.78;2.83;;;14.60;21.10;;;;;;4988258;28;35632;-76
2022/03/12 09:25:28;;;;;;;6.50;3.53;;;14.70;21.10;;;;;;4988967;28;34394;-77
2022/03/12 09:27:54;;;;;;;6.05;3.13;;;14.80;20.50;;;;;;4989331;28;34232;-76
2022/03/12 09:30:20;;;;;;;7.10;3.30;;;14.70;20.70;;;;;;4989235;28;34076;-76
2022/03/12 09:32:48;;;;;;;4.82;3.20;;;14.70;20.80;;;;;;4988223;28;35809;-75
2022/03/12 09:35:14;;;;;;;5.07;2.90;;;14.70;20.70;;;;;;5006755;28;34142;-76
2022/03/12 09:37:41;;;;;;;4.60;3.10;;;14.80;20.50;;;;;;4988649;28;34351;-76
2022/03/12 09:40:08;;;;;;;4.95;3.28;;;14.80;20.10;;;;;;4989066;28;34134;-76
2022/03/12 09:42:34;;;;;;;5.05;3.05;;;14.90;20.40;;;;;;4972601;28;35637;-77
2022/03/12 09:45:03;;;;;;;5.45;3.15;;;14.90;20.30;;;;;;4989014;28;34249;-75
2022/03/12 09:47:29;;;;;;;3.58;2.88;;;14.80;20.00;;;;;;4988511;28;34052;-76
2022/03/12 09:49:55;;;;;;;6.72;3.60;;;14.80;20.10;;;;;;5006429;28;34430;-75
2022/03/12 09:52:21;;;;;;;10.77;3.28;;;14.80;20.20;;;;;;4989356;28;36187;-78
2022/03/12 09:54:49;;;;;;;5.45;3.45;;;14.90;20.10;;;;;;4972227;28;34511;-77
2022/03/12 09:57:15;;;;;;;5.75;3.55;;;15.00;20.20;;;;;;5006575;28;34123;-76
2022/03/12 09:59:42;;;;;;;5.18;3.33;;;15.10;20.10;;;;;;4987971;28;34190;-76
2022/03/12 10:02:09;;;;;;;4.82;2.72;;;15.20;19.90;;;;;;4988064;28;35237;-76
2022/03/12 10:04:35;;;;;;;5.93;3.03;;;15.30;19.80;;;;;;5005375;28;34152;-76
2022/03/12 10:07:01;;;;;;;5.57;3.03;;;15.40;19.80;;;;;;4988493;28;34264;-77
2022/03/12 10:09:27;;;;;;;3.35;2.55;;;15.40;19.60;;;;;;4988417;28;34411;-75
2022/03/12 10:11:53;;;;;;;3.08;2.60;;;15.40;19.50;;;;;;4987183;28;35679;-76
2022/03/12 10:14:22;;;;;;;3.95;2.60;;;15.40;19.50;;;;;;4988266;28;34167;-76
2022/03/12 10:16:48;;;;;;;5.68;2.83;;;15.40;19.40;;;;;;4987884;28;34235;-76
2022/03/12 10:19:14;;;;;;;3.53;3.17;;;15.40;19.40;;;;;;4988649;28;34501;-76
2022/03/12 10:21:42;;;;;;;4.57;2.33;;;15.40;19.30;;;;;;4987171;28;36529;-76
2022/03/12 10:24:10;;;;;;;5.07;2.90;;;15.40;19.20;;;;;;5005263;28;34059;-76
2022/03/12 10:26:37;;;;;;;5.28;2.50;;;15.50;19.00;;;;;;4988597;28;34112;-76
2022/03/12 10:29:04;;;;;;;6.97;2.83;;;15.50;19.10;;;;;;4987242;28;34615;-76
2022/03/12 10:31:30;;;;;;;5.75;2.88;;;15.60;18.90;;;;;;5006323;28;34308;-77
2022/03/12 10:34:26;;;;;;;6.75;3.33;;;15.70;18.90;;;;;;4987213;28;34271;-76
2022/03/12 10:36:54;;;;;;;5.00;2.90;;;15.80;16.80;;;;;;4987297;28;34132;-75
2022/03/12 10:39:37;;;;;;;4.38;2.83;;;15.90;18.40;;;;;;4971942;28;34425;-76
2022/03/12 10:42:07;;;;;;;3.35;2.55;;;16.10;17.00;;;;;;4971542;28;35711;-76
2022/03/12 10:44:36;;;;;;;9.60;3.40;;;16.20;18.30;;;;;;4972829;28;34134;-76
2022/03/12 10:47:03;;;;;;;4.30;2.70;;;16.30;18.30;;;;;;4972629;28;34204;-76
2022/03/12 10:49:30;;;;;;;3.63;2.63;;;16.40;18.20;;;;;;4988083;28;34208;-75
2022/03/12 10:51:57;;;;;;;2.80;2.25;;;16.30;17.20;;;;;;4987698;28;35303;-76
2022/03/12 10:54:24;;;;;;;2.88;2.58;;;16.30;17.60;;;;;;4987262;28;34003;-76
2022/03/12 10:56:52;;;;;;;4.40;3.10;;;16.30;18.00;;;;;;4987144;28;34136;-76
2022/03/12 10:59:22;;;;;;;9.50;3.20;;;16.30;17.80;;;;;;4988650;28;34328;-77
2022/03/12 11:01:54;;;;;;;3.55;2.70;;;16.40;16.70;;;;;;4987861;28;36367;-76
2022/03/12 11:04:23;;;;;;;6.50;2.70;;;16.40;16.60;;;;;;4970108;28;34122;-76
2022/03/12 11:06:51;;;;;;;3.33;2.42;;;16.30;17.40;;;;;;4986516;28;34285;-76
2022/03/12 11:09:30;;;;;;;3.95;2.63;;;16.20;17.70;;;;;;4987953;28;34607;-75
2022/03/12 11:11:58;;;;;;;3.38;2.67;;;16.30;17.70;;;;;;4986855;28;34339;-76
2022/03/12 11:14:25;;;;;;;4.75;3.25;;;16.30;17.70;;;;;;5002191;28;34440;-76
2022/03/12 11:16:52;;;;;;;4.78;3.25;;;16.40;17.80;;;;;;4987844;28;34478;-77
2022/03/12 11:19:37;;;;;;;4.15;2.90;;;16.50;17.80;;;;;;5003997;28;34114;-76
2022/03/12 11:22:10;;;;;;;4.85;3.45;;;16.60;17.60;;;;;;4985322;28;35614;-76
2022/03/12 11:24:53;;;;;;;5.38;3.67;;;16.70;17.10;;;;;;4985423;28;34253;-75
2022/03/12 11:27:35;;;;;;;5.80;3.35;;;16.70;16.20;;;;;;4986970;28;34264;-75
2022/03/12 11:30:08;;;;;;;7.38;3.58;;;16.80;15.80;;;;;;4986646;28;34466;-75
2022/03/12 11:32:36;;;;;;;5.20;3.40;;;16.80;17.10;;;;;;4986281;28;36312;-76
2022/03/12 11:35:07;;;;;;;7.60;3.22;;;17.00;17.40;;;;;;4985081;28;34253;-76
2022/03/12 11:37:36;;;;;;;4.43;3.40;;;17.10;16.70;;;;;;4969855;28;34473;-76
2022/03/12 11:40:04;;;;;;;5.07;3.15;;;17.10;16.80;;;;;;4985790;28;34044;-75
2022/03/12 11:42:34;;;;;;;5.22;3.45;;;17.20;16.60;;;;;;4969628;28;35652;-75
2022/03/12 11:45:04;;;;;;;6.70;3.25;;;17.40;16.40;;;;;;4987231;28;34173;-75
2022/03/12 11:47:33;;;;;;;3.90;2.65;;;17.40;16.20;;;;;;4972906;28;34319;-76
2022/03/12 11:50:02;;;;;;;3.53;2.60;;;17.50;16.40;;;;;;4988988;28;34180;-76
2022/03/12 11:52:29;;;;;;;4.35;2.97;;;17.60;16.30;;;;;;4988278;28;34371;-76
2022/03/12 11:54:57;;;;;;;3.97;2.97;;;17.60;16.20;;;;;;4988926;28;34131;-76
2022/03/12 11:57:27;;;;;;;4.90;2.63;;;17.60;16.70;;;;;;4989678;28;34233;-76
2022/03/12 11:59:55;;;;;;;2.85;2.30;;;17.70;15.60;;;;;;4994927;28;34314;-76
2022/03/12 12:02:33;;;;;;;4.25;2.90;;;17.70;16.00;;;;;;5005924;28;34613;-75
2022/03/12 12:05:04;;;;;;;3.72;2.53;;;17.80;14.30;;;;;;4988761;28;34118;-76
2022/03/12 12:07:36;;;;;;;5.07;3.10;;;17.90;15.70;;;;;;4972391;28;34324;-75
2022/03/12 12:10:06;;;;;;;5.75;3.42;;;18.10;15.90;;;;;;4988829;28;34336;-76
2022/03/12 12:12:35;;;;;;;5.72;3.10;;;18.20;15.30;;;;;;4988610;28;36185;-76
2022/03/12 12:15:04;;;;;;;5.88;3.05;;;18.30;15.60;;;;;;5007050;28;34452;-76
2022/03/12 12:17:32;;;;;;;3.90;3.03;;;18.30;15.40;;;;;;5006304;28;34172;-76
2022/03/12 12:19:59;;;;;;;5.30;2.90;;;18.20;15.30;;;;;;5006339;28;34080;-75
2022/03/12 12:22:25;;;;;;;4.65;3.20;;;18.00;15.60;;;;;;5007227;28;34154;-75
2022/03/12 12:24:55;;;;;;;4.05;3.42;;;17.90;15.80;;;;;;5006828;28;34266;-76
2022/03/12 12:27:23;;;;;;;4.15;3.10;;;17.70;15.10;;;;;;4989628;28;34210;-75
2022/03/12 12:29:54;;;;;;;11.45;3.70;;;17.40;15.70;;;;;;5006864;28;34199;-75
2022/03/12 12:32:22;;;;;;;5.38;3.58;;;17.20;15.70;;;;;;4988755;28;35829;-75
2022/03/12 12:35:21;;;;;;;6.45;3.63;;;17.00;16.10;;;;;;5001425;28;34472;-75
2022/03/12 12:37:51;;;;;;;8.73;3.38;;;16.90;14.20;;;;;;5004096;28;34323;-75
2022/03/12 12:40:23;;;;;;;5.72;2.95;;;16.80;15.40;;;;;;5006400;28;34401;-75
2022/03/12 12:42:52;;;;;;;9.63;3.72;;;16.70;15.70;;;;;;5005760;28;34030;-75
2022/03/12 12:45:20;;;;;;;28.20;5.00;;;16.60;16.50;;;;;;5006419;28;34366;-76
2022/03/12 12:47:47;;;;;;;6.00;2.92;;;16.50;16.40;;;;;;4975263;28;34178;-76
2022/03/12 12:50:24;;;;;;;4.50;3.35;;;16.40;16.40;;;;;;4972809;28;34215;-75
2022/03/12 12:53:08;;;;;;;6.60;3.70;;;16.50;15.40;;;;;;4989594;28;35837;-73